createdAt,value
2018-08-17T00:00:09.723Z,0.00
2018-08-17T00:01:31.433Z,0.00
2018-08-17T00:02:32.355Z,0.00
2018-08-17T00:03:32.007Z,0.00
2018-08-17T00:04:32.744Z,0.00
2018-08-17T00:05:32.269Z,0.00
2018-08-17T00:06:31.821Z,0.00
2018-08-17T00:07:32.318Z,0.00
2018-08-17T00:08:31.947Z,0.00
2018-08-17T00:09:32.607Z,0.00
2018-08-17T00:10:32.233Z,0.00
2018-08-17T00:11:31.831Z,0.00
2018-08-17T00:12:53.218Z,0.00
2018-08-17T00:13:53.781Z,0.00
2018-08-17T00:15:14.580Z,0.00
2018-08-17T00:16:15.393Z,0.00
2018-08-17T00:17:36.019Z,0.00
2018-08-17T00:18:36.470Z,0.00
2018-08-17T00:19:58.492Z,0.00
2018-08-17T00:20:58.978Z,0.00
2018-08-17T00:21:58.470Z,0.00
2018-08-17T00:22:59.252Z,0.00
2018-08-17T00:24:20.487Z,0.00
2018-08-17T00:25:42.447Z,0.00
2018-08-17T00:26:43.252Z,0.00
2018-08-17T00:27:42.599Z,0.00
2018-08-17T00:28:43.381Z,0.00
2018-08-17T00:29:42.834Z,0.00
2018-08-17T00:30:42.643Z,0.00
2018-08-17T00:31:42.378Z,0.00
2018-08-17T00:32:42.946Z,0.00
2018-08-17T00:33:42.466Z,0.00
2018-08-17T00:34:43.251Z,0.00
2018-08-17T00:35:42.947Z,0.00
2018-08-17T00:36:42.744Z,0.00
2018-08-17T00:37:43.132Z,0.00
2018-08-17T00:38:42.886Z,0.00
2018-08-17T00:39:42.448Z,0.00
2018-08-17T00:40:43.313Z,0.00
2018-08-17T00:41:43.055Z,0.00
2018-08-17T00:42:42.793Z,0.00
2018-08-17T00:43:43.216Z,0.00
2018-08-17T00:44:42.581Z,0.00
2018-08-17T00:45:43.368Z,0.00
2018-08-17T00:47:04.147Z,0.00
2018-08-17T00:48:04.911Z,0.00
2018-08-17T00:49:04.626Z,0.00
2018-08-17T00:50:05.467Z,0.00
2018-08-17T00:51:26.543Z,0.00
2018-08-17T00:52:27.322Z,0.00
2018-08-17T00:53:27.204Z,0.00
2018-08-17T00:54:26.750Z,0.00
2018-08-17T00:55:27.287Z,0.00
2018-08-17T00:56:48.205Z,0.00
2018-08-17T00:57:49.057Z,0.00
2018-08-17T00:58:48.804Z,0.00
2018-08-17T00:59:48.393Z,0.00
2018-08-17T01:00:48.925Z,0.00
2018-08-17T01:01:48.670Z,0.00
2018-08-17T01:02:49.410Z,0.00
2018-08-17T01:03:49.135Z,0.00
2018-08-17T01:04:48.752Z,0.00
2018-08-17T01:05:48.353Z,0.00
2018-08-17T01:07:31.544Z,0.00
2018-08-17T01:08:31.855Z,0.00
2018-08-17T01:09:32.756Z,0.00
2018-08-17T01:10:32.273Z,0.00
2018-08-17T01:11:53.705Z,0.00
2018-08-17T01:12:54.425Z,0.00
2018-08-17T01:13:53.984Z,0.00
2018-08-17T01:14:53.541Z,0.00
2018-08-17T01:16:15.944Z,0.00
2018-08-17T01:17:16.707Z,0.00
2018-08-17T01:18:37.879Z,0.00
2018-08-17T01:19:38.549Z,0.00
2018-08-17T01:20:38.332Z,0.00
2018-08-17T01:21:37.878Z,0.00
2018-08-17T01:22:38.666Z,0.00
2018-08-17T01:23:38.142Z,0.00
2018-08-17T01:24:38.111Z,0.00
2018-08-17T01:25:37.677Z,0.00
2018-08-17T01:26:38.413Z,0.00
2018-08-17T01:27:37.950Z,0.00
2018-08-17T01:28:38.383Z,0.00
2018-08-17T01:29:37.855Z,0.00
2018-08-17T01:30:38.164Z,0.00
2018-08-17T01:31:37.677Z,0.00
2018-08-17T01:32:38.475Z,0.00
2018-08-17T01:33:59.613Z,0.00
2018-08-17T01:35:00.263Z,0.00
2018-08-17T01:35:59.840Z,0.00
2018-08-17T01:37:00.421Z,0.00
2018-08-17T01:38:21.012Z,0.00
2018-08-17T01:39:21.994Z,0.00
2018-08-17T01:40:21.553Z,0.00
2018-08-17T01:41:21.020Z,0.00
2018-08-17T01:42:42.621Z,0.00
2018-08-17T01:43:43.133Z,0.00
2018-08-17T01:44:43.454Z,0.00
2018-08-17T01:46:04.162Z,0.00
2018-08-17T01:47:04.620Z,0.00
2018-08-17T01:48:04.407Z,0.00
2018-08-17T01:49:26.168Z,0.00
2018-08-17T01:50:26.848Z,0.00
2018-08-17T01:51:26.781Z,0.00
2018-08-17T01:52:26.666Z,0.00
2018-08-17T01:53:27.205Z,0.00
2018-08-17T01:54:26.834Z,0.00
2018-08-17T01:55:26.310Z,0.00
2018-08-17T01:56:26.778Z,0.00
2018-08-17T01:57:27.249Z,0.00
2018-08-17T01:58:27.017Z,0.00
2018-08-17T01:59:26.878Z,0.00
2018-08-17T02:00:26.477Z,0.00
2018-08-17T02:01:26.913Z,0.00
2018-08-17T02:02:26.383Z,0.00
2018-08-17T02:03:26.877Z,0.00
2018-08-17T02:04:26.576Z,0.00
2018-08-17T02:05:26.634Z,0.00
2018-08-17T02:06:27.471Z,0.00
2018-08-17T02:07:27.030Z,0.00
2018-08-17T02:08:26.633Z,0.00
2018-08-17T02:09:27.127Z,0.00
2018-08-17T02:10:26.837Z,0.00
2018-08-17T02:11:26.663Z,0.00
2018-08-17T02:12:27.174Z,0.00
2018-08-17T02:13:26.938Z,0.00
2018-08-17T02:14:26.762Z,0.00
2018-08-17T02:15:26.834Z,0.00
2018-08-17T02:16:26.550Z,0.00
2018-08-17T02:17:27.242Z,0.00
2018-08-17T02:18:26.718Z,0.00
2018-08-17T02:19:26.328Z,0.00
2018-08-17T02:20:27.053Z,0.00
2018-08-17T02:21:26.686Z,0.00
2018-08-17T02:22:26.525Z,0.00
2018-08-17T02:23:27.256Z,0.00
2018-08-17T02:24:27.033Z,0.00
2018-08-17T02:25:26.844Z,0.00
2018-08-17T02:26:26.379Z,0.00
2018-08-17T02:27:48.776Z,0.00
2018-08-17T02:28:49.385Z,0.00
2018-08-17T02:29:48.781Z,0.00
2018-08-17T02:31:11.052Z,0.00
2018-08-17T02:32:33.116Z,0.00
2018-08-17T02:33:54.519Z,0.00
2018-08-17T02:34:55.453Z,0.00
2018-08-17T02:35:54.926Z,0.00
2018-08-17T02:36:54.556Z,0.00
2018-08-17T02:37:55.469Z,0.00
2018-08-17T02:38:55.168Z,0.00
2018-08-17T02:39:54.949Z,0.00
2018-08-17T02:40:54.499Z,0.00
2018-08-17T02:41:55.114Z,0.00
2018-08-17T02:42:54.603Z,0.00
2018-08-17T02:43:55.371Z,0.00
2018-08-17T02:45:16.636Z,0.00
2018-08-17T02:46:16.355Z,0.00
2018-08-17T02:47:17.127Z,0.00
2018-08-17T02:48:16.811Z,0.00
2018-08-17T02:49:16.661Z,0.00
2018-08-17T02:50:16.611Z,0.00
2018-08-17T02:51:16.542Z,0.00
2018-08-17T02:52:17.381Z,0.00
2018-08-17T02:53:17.135Z,0.00
2018-08-17T02:54:38.413Z,0.00
2018-08-17T02:55:39.256Z,0.00
2018-08-17T02:56:39.051Z,0.00
2018-08-17T02:57:38.959Z,0.00
2018-08-17T02:58:38.544Z,0.00
2018-08-17T02:59:40.251Z,0.00
2018-08-17T03:00:38.849Z,0.00
2018-08-17T03:01:39.287Z,0.00
2018-08-17T03:02:38.892Z,0.00
2018-08-17T03:03:39.178Z,0.00
2018-08-17T03:04:38.900Z,0.00
2018-08-17T03:05:38.575Z,0.00
2018-08-17T03:06:39.410Z,1.00
2018-08-17T03:08:00.341Z,0.00
2018-08-17T03:09:01.861Z,0.00
2018-08-17T03:10:00.524Z,0.00
2018-08-17T03:11:01.099Z,0.00
2018-08-17T03:12:21.924Z,0.00
2018-08-17T03:13:22.705Z,0.00
2018-08-17T03:14:22.307Z,0.00
2018-08-17T03:15:22.922Z,0.00
2018-08-17T03:16:22.465Z,0.00
2018-08-17T03:17:22.847Z,0.00
2018-08-17T03:18:43.965Z,0.00
2018-08-17T03:19:44.381Z,0.00
2018-08-17T03:20:45.060Z,0.00
2018-08-17T03:21:44.652Z,0.00
2018-08-17T03:22:44.140Z,0.00
2018-08-17T03:23:44.686Z,0.00
2018-08-17T03:24:44.276Z,0.00
2018-08-17T03:25:45.003Z,0.00
2018-08-17T03:26:44.729Z,1.00
2018-08-17T03:27:44.440Z,1.00
2018-08-17T03:28:44.230Z,1.00
2018-08-17T03:29:45.009Z,1.00
2018-08-17T03:30:44.805Z,0.00
2018-08-17T03:31:44.515Z,0.00
2018-08-17T03:32:44.078Z,1.00
2018-08-17T03:33:44.948Z,1.00
2018-08-17T03:35:27.203Z,1.00
2018-08-17T03:36:27.530Z,1.00
2018-08-17T03:37:27.157Z,2.00
2018-08-17T03:38:27.618Z,2.00
2018-08-17T03:39:27.104Z,2.00
2018-08-17T03:40:27.859Z,3.00
2018-08-17T03:41:27.709Z,4.00
2018-08-17T03:42:27.361Z,4.00
2018-08-17T03:43:28.050Z,5.00
2018-08-17T03:44:27.475Z,7.00
2018-08-17T03:45:27.892Z,8.00
2018-08-17T03:46:27.422Z,8.00
2018-08-17T03:47:27.970Z,10.00
2018-08-17T03:49:10.545Z,12.00
2018-08-17T03:50:11.050Z,14.00
2018-08-17T03:51:11.509Z,16.00
2018-08-17T03:52:11.315Z,18.00
2018-08-17T03:53:11.151Z,21.00
2018-08-17T03:54:32.037Z,26.00
2018-08-17T03:55:32.366Z,30.00
2018-08-17T03:56:32.236Z,34.00
2018-08-17T03:57:31.805Z,40.00
2018-08-17T03:58:32.702Z,46.00
2018-08-17T03:59:53.554Z,57.00
2018-08-17T04:00:54.284Z,69.00
2018-08-17T04:01:53.682Z,82.00
2018-08-17T04:02:54.195Z,101.00
2018-08-17T04:03:53.734Z,120.00
2018-08-17T04:04:54.674Z,140.00
2018-08-17T04:05:54.205Z,159.00
2018-08-17T04:06:53.793Z,173.00
2018-08-17T04:07:54.414Z,185.00
2018-08-17T04:08:54.495Z,192.00
2018-08-17T04:10:37.219Z,208.00
2018-08-17T04:11:37.956Z,220.00
2018-08-17T04:12:59.362Z,242.00
2018-08-17T04:14:00.912Z,263.00
2018-08-17T04:14:59.377Z,287.00
2018-08-17T04:16:22.837Z,326.00
2018-08-17T04:17:22.604Z,351.00
2018-08-17T04:18:22.384Z,387.00
2018-08-17T04:19:22.071Z,442.00
2018-08-17T04:20:22.645Z,512.00
2018-08-17T04:21:22.419Z,583.00
2018-08-17T04:22:22.365Z,670.00
2018-08-17T04:23:21.889Z,748.00
2018-08-17T04:24:43.964Z,841.00
2018-08-17T04:25:44.493Z,895.00
2018-08-17T04:26:44.609Z,923.00
2018-08-17T04:27:44.826Z,943.00
2018-08-17T04:28:44.492Z,970.00
2018-08-17T04:29:44.569Z,1008.00
2018-08-17T04:31:06.286Z,1061.00
2018-08-17T04:32:07.019Z,1098.00
2018-08-17T04:33:06.655Z,1151.00
2018-08-17T04:34:06.553Z,1222.00
2018-08-17T04:35:06.775Z,1374.00
2018-08-17T04:36:06.724Z,1602.00
2018-08-17T04:37:06.604Z,1840.00
2018-08-17T04:38:06.480Z,1993.00
2018-08-17T04:39:06.347Z,2055.00
2018-08-17T04:40:06.228Z,2029.00
2018-08-17T04:41:07.300Z,1993.00
2018-08-17T04:42:06.022Z,1977.00
2018-08-17T04:43:06.666Z,1966.00
2018-08-17T04:44:06.394Z,1941.00
2018-08-17T04:45:07.552Z,1862.00
2018-08-17T04:46:07.718Z,1753.00
2018-08-17T04:47:06.698Z,1685.00
2018-08-17T04:48:06.663Z,1656.00
2018-08-17T04:49:27.864Z,1688.00
2018-08-17T04:50:28.562Z,1719.00
2018-08-17T04:51:29.069Z,1755.00
2018-08-17T04:52:29.639Z,1863.00
2018-08-17T04:53:30.221Z,2041.00
2018-08-17T04:54:40.826Z,2168.00
2018-08-17T04:55:28.592Z,2229.00
2018-08-17T04:56:28.615Z,2205.00
2018-08-17T04:57:28.283Z,2136.00
2018-08-17T04:58:28.367Z,2036.00
2018-08-17T04:59:28.038Z,1869.00
2018-08-17T05:00:28.706Z,1624.00
2018-08-17T05:01:50.040Z,1245.00
2018-08-17T05:02:50.536Z,1037.00
2018-08-17T05:03:50.116Z,944.00
2018-08-17T05:04:50.775Z,921.00
2018-08-17T05:05:50.341Z,906.00
2018-08-17T05:06:50.390Z,896.00
2018-08-17T05:07:50.444Z,907.00
2018-08-17T05:09:12.797Z,944.00
2018-08-17T05:10:35.815Z,1030.00
2018-08-17T05:11:37.110Z,1107.00
2018-08-17T05:12:41.683Z,1221.00
2018-08-17T05:13:36.457Z,1381.00
2018-08-17T05:14:57.624Z,1604.00
2018-08-17T05:15:59.017Z,1671.00
2018-08-17T05:16:58.608Z,1600.00
2018-08-17T05:18:19.640Z,1497.00
2018-08-17T05:19:20.584Z,1493.00
2018-08-17T05:20:20.682Z,1542.00
2018-08-17T05:21:20.484Z,1624.00
2018-08-17T05:22:41.685Z,1707.00
2018-08-17T05:23:42.825Z,1677.00
2018-08-17T05:24:42.562Z,1564.00
2018-08-17T05:25:42.295Z,1551.00
2018-08-17T05:26:42.366Z,1872.00
2018-08-17T05:27:42.012Z,2664.00
2018-08-17T05:29:03.348Z,3949.00
2018-08-17T05:30:25.704Z,4845.00
2018-08-17T05:31:25.357Z,5367.00
2018-08-17T05:32:26.620Z,5809.00
2018-08-17T05:33:26.493Z,6264.00
2018-08-17T05:34:26.068Z,6659.00
2018-08-17T05:35:25.852Z,7162.00
2018-08-17T05:37:08.982Z,7408.00
2018-08-17T05:38:31.463Z,6806.00
2018-08-17T05:39:31.542Z,6790.00
2018-08-17T05:40:32.130Z,7271.00
2018-08-17T05:42:15.649Z,9137.00
2018-08-17T05:43:16.293Z,10184.00
2018-08-17T05:44:16.280Z,11137.00
2018-08-17T05:45:16.474Z,11891.00
2018-08-17T05:46:38.810Z,13327.00
2018-08-17T05:47:38.626Z,14364.00
2018-08-17T05:48:38.559Z,15182.00
2018-08-17T05:49:39.779Z,15145.00
2018-08-17T05:50:39.007Z,15656.00
2018-08-17T05:51:39.169Z,15845.00
2018-08-17T05:53:01.441Z,16128.00
2018-08-17T05:54:01.710Z,16064.00
2018-08-17T05:55:01.290Z,16048.00
2018-08-17T05:56:01.029Z,16264.00
2018-08-17T05:57:01.074Z,15887.00
2018-08-17T05:58:01.015Z,15514.00
2018-08-17T05:59:01.017Z,15275.00
2018-08-17T06:00:22.367Z,15456.00
2018-08-17T06:01:44.814Z,15550.00
2018-08-17T06:03:07.473Z,16088.00
2018-08-17T06:04:08.114Z,15075.00
2018-08-17T06:05:07.954Z,15968.00
2018-08-17T06:06:07.671Z,14990.00
2018-08-17T06:07:07.485Z,12896.00
2018-08-17T06:08:29.314Z,12971.00
2018-08-17T06:09:29.193Z,13342.00
2018-08-17T06:10:30.045Z,12831.00
2018-08-17T06:11:29.813Z,11941.00
2018-08-17T06:12:30.040Z,11966.00
2018-08-17T06:13:29.922Z,13080.00
2018-08-17T06:14:29.648Z,12884.00
2018-08-17T06:15:29.450Z,13605.00
2018-08-17T06:16:29.243Z,15087.00
2018-08-17T06:17:29.042Z,15091.00
2018-08-17T06:18:29.808Z,13250.00
2018-08-17T06:19:29.739Z,10698.00
2018-08-17T06:20:29.499Z,8507.00
2018-08-17T06:21:29.266Z,6658.00
2018-08-17T06:22:29.568Z,5243.00
2018-08-17T06:23:30.513Z,4246.00
2018-08-17T06:24:30.065Z,3617.00
2018-08-17T06:25:29.870Z,3188.00
2018-08-17T06:26:30.077Z,2982.00
2018-08-17T06:27:30.436Z,2878.00
2018-08-17T06:28:29.214Z,2826.00
2018-08-17T06:29:34.671Z,2796.00
2018-08-17T06:30:32.009Z,2810.00
2018-08-17T06:31:30.071Z,2824.00
2018-08-17T06:32:31.005Z,2809.00
2018-08-17T06:33:29.550Z,2769.00
2018-08-17T06:34:29.987Z,2782.00
2018-08-17T06:35:29.575Z,2709.00
2018-08-17T06:36:29.650Z,2646.00
2018-08-17T06:37:30.133Z,2716.00
2018-08-17T06:39:36.251Z,3248.00
2018-08-17T06:40:38.020Z,3497.00
2018-08-17T06:41:37.976Z,3646.00
2018-08-17T06:43:04.889Z,3580.00
2018-08-17T06:44:02.230Z,3323.00
2018-08-17T06:45:01.175Z,2971.00
2018-08-17T06:46:01.931Z,2692.00
2018-08-17T06:47:25.832Z,2762.00
2018-08-17T06:48:50.838Z,3182.00
2018-08-17T06:49:51.154Z,3284.00
2018-08-17T06:50:50.479Z,3252.00
2018-08-17T06:51:52.880Z,3239.00
2018-08-17T06:52:51.030Z,3228.00
2018-08-17T06:53:49.869Z,3203.00
2018-08-17T06:54:50.074Z,3197.00
2018-08-17T06:55:50.098Z,3308.00
2018-08-17T06:56:50.198Z,3563.00
2018-08-17T06:57:52.385Z,3816.00
2018-08-17T06:58:50.585Z,3889.00
2018-08-17T06:59:49.682Z,3728.00
2018-08-17T07:00:53.055Z,3496.00
2018-08-17T07:01:51.930Z,3269.00
2018-08-17T07:02:50.273Z,3060.00
2018-08-17T07:03:49.573Z,2875.00
2018-08-17T07:04:49.954Z,2745.00
2018-08-17T07:05:52.081Z,2708.00
2018-08-17T07:06:50.228Z,2777.00
2018-08-17T07:07:49.342Z,2907.00
2018-08-17T07:08:50.298Z,2965.00
2018-08-17T07:09:49.754Z,2860.00
2018-08-17T07:10:51.511Z,2658.00
2018-08-17T07:11:51.213Z,2492.00
2018-08-17T07:13:11.766Z,2428.00
2018-08-17T07:14:12.617Z,2433.00
2018-08-17T07:15:12.701Z,2427.00
2018-08-17T07:16:12.815Z,2416.00
2018-08-17T07:17:12.972Z,2419.00
2018-08-17T07:18:35.685Z,2409.00
2018-08-17T07:19:38.340Z,2356.00
2018-08-17T07:20:35.320Z,2304.00
2018-08-17T07:21:35.409Z,2335.00
2018-08-17T07:23:45.985Z,2817.00
2018-08-17T07:24:46.696Z,2995.00
2018-08-17T07:25:44.665Z,2976.00
2018-08-17T07:27:28.000Z,2735.00
2018-08-17T07:28:30.046Z,2557.00
2018-08-17T07:29:29.013Z,2367.00
2018-08-17T07:30:28.658Z,2174.00
2018-08-17T07:31:28.426Z,2014.00
2018-08-17T07:32:28.616Z,1920.00
2018-08-17T07:33:28.690Z,1888.00
2018-08-17T07:34:28.390Z,1919.00
2018-08-17T07:35:28.427Z,2000.00
2018-08-17T07:36:28.503Z,2107.00
2018-08-17T07:38:11.892Z,2254.00
2018-08-17T07:39:13.018Z,2339.00
2018-08-17T07:40:11.822Z,2439.00
2018-08-17T07:41:12.738Z,2572.00
2018-08-17T07:42:12.774Z,2739.00
2018-08-17T07:43:12.758Z,2948.00
2018-08-17T07:44:13.009Z,3226.00
2018-08-17T07:45:11.803Z,3531.00
2018-08-17T07:46:12.860Z,3926.00
2018-08-17T07:47:12.854Z,4332.00
2018-08-17T07:48:12.288Z,4672.00
2018-08-17T07:49:35.449Z,5149.00
2018-08-17T07:50:35.614Z,5524.00
2018-08-17T07:51:35.596Z,5891.00
2018-08-17T07:52:35.710Z,6256.00
2018-08-17T07:53:35.525Z,6609.00
2018-08-17T07:54:35.871Z,6946.00
2018-08-17T07:55:35.929Z,7186.00
2018-08-17T07:56:35.716Z,7289.00
2018-08-17T07:57:35.522Z,7472.00
2018-08-17T07:58:35.290Z,7775.00
2018-08-17T07:59:35.207Z,8059.00
2018-08-17T08:00:35.243Z,8243.00
2018-08-17T08:01:37.489Z,8357.00
2018-08-17T08:02:35.437Z,8411.00
2018-08-17T08:03:35.155Z,8510.00
2018-08-17T08:04:35.290Z,8595.00
2018-08-17T08:06:19.000Z,8814.00
2018-08-17T08:07:19.145Z,9005.00
2018-08-17T08:08:18.967Z,9257.00
2018-08-17T08:09:19.309Z,9492.00
2018-08-17T08:10:40.760Z,9726.00
2018-08-17T08:11:41.903Z,9891.00
2018-08-17T08:13:02.661Z,10059.00
2018-08-17T08:14:02.792Z,10135.00
2018-08-17T08:15:28.735Z,10234.00
2018-08-17T08:16:29.027Z,10242.00
2018-08-17T08:17:29.016Z,10186.00
2018-08-17T08:18:29.125Z,10207.00
2018-08-17T08:19:29.263Z,10236.00
2018-08-17T08:20:29.276Z,10267.00
2018-08-17T08:21:29.890Z,10313.00
2018-08-17T08:22:28.849Z,10190.00
2018-08-17T08:23:28.849Z,10117.00
2018-08-17T08:24:28.595Z,9976.00
2018-08-17T08:25:28.817Z,9804.00
2018-08-17T08:26:28.757Z,9619.00
2018-08-17T08:27:50.949Z,9494.00
2018-08-17T08:29:12.810Z,9707.00
2018-08-17T08:30:12.814Z,10033.00
2018-08-17T08:31:12.895Z,10411.00
2018-08-17T08:32:34.679Z,11221.00
2018-08-17T08:33:35.104Z,11900.00
2018-08-17T08:34:34.993Z,12503.00
2018-08-17T08:35:34.716Z,13029.00
2018-08-17T08:36:34.634Z,13487.00
2018-08-17T08:37:34.896Z,13966.00
2018-08-17T08:38:34.798Z,14521.00
2018-08-17T08:39:35.129Z,15057.00
2018-08-17T08:40:35.692Z,15338.00
2018-08-17T08:41:56.695Z,15474.00
2018-08-17T08:42:56.936Z,15274.00
2018-08-17T08:43:57.356Z,14928.00
2018-08-17T08:45:18.947Z,14495.00
2018-08-17T08:46:20.225Z,14247.00
2018-08-17T08:47:19.902Z,14107.00
2018-08-17T08:48:19.960Z,14041.00
2018-08-17T08:49:19.948Z,13967.00
2018-08-17T08:50:19.745Z,13848.00
2018-08-17T08:51:19.326Z,13579.00
2018-08-17T08:52:41.234Z,12947.00
2018-08-17T08:53:41.209Z,12337.00
2018-08-17T08:54:41.367Z,11766.00
2018-08-17T08:55:41.103Z,11766.00
2018-08-17T08:56:41.292Z,12103.00
2018-08-17T08:57:48.204Z,12463.00
2018-08-17T08:58:50.330Z,12533.00
2018-08-17T08:59:47.124Z,11705.00
2018-08-17T09:00:41.184Z,10615.00
2018-08-17T09:01:41.154Z,10938.00
2018-08-17T09:02:41.124Z,12759.00
2018-08-17T09:03:43.051Z,14786.00
2018-08-17T09:04:41.358Z,15748.00
2018-08-17T09:05:41.327Z,16250.00
2018-08-17T09:06:41.514Z,16273.00
2018-08-17T09:08:05.871Z,15977.00
2018-08-17T09:09:29.522Z,16101.00
2018-08-17T09:10:30.316Z,17017.00
2018-08-17T09:11:31.431Z,18616.00
2018-08-17T09:12:30.330Z,19104.00
2018-08-17T09:13:32.348Z,17792.00
2018-08-17T09:14:30.650Z,15750.00
2018-08-17T09:15:29.670Z,12634.00
2018-08-17T09:16:29.965Z,9538.00
2018-08-17T09:17:30.328Z,8662.00
2018-08-17T09:18:30.124Z,8506.00
2018-08-17T09:19:30.019Z,9409.00
2018-08-17T09:20:30.113Z,11317.00
2018-08-17T09:21:51.381Z,15769.00
2018-08-17T09:22:53.515Z,20096.00
2018-08-17T09:23:52.509Z,23656.00
2018-08-17T09:25:15.076Z,22912.00
2018-08-17T09:26:58.700Z,16501.00
2018-08-17T09:27:59.767Z,13365.00
2018-08-17T09:28:58.718Z,11173.00
2018-08-17T09:29:58.790Z,9378.00
2018-08-17T09:30:58.748Z,8687.00
2018-08-17T09:31:58.822Z,9355.00
2018-08-17T09:32:58.786Z,10684.00
2018-08-17T09:34:23.491Z,13795.00
2018-08-17T09:35:23.314Z,20120.00
2018-08-17T09:36:24.483Z,26568.00
2018-08-17T09:37:24.856Z,30848.00
2018-08-17T09:38:24.344Z,33616.00
2018-08-17T09:39:23.366Z,35400.00
2018-08-17T09:40:45.434Z,36648.00
2018-08-17T09:41:47.700Z,37744.00
2018-08-17T09:42:45.064Z,40520.00
2018-08-17T09:44:29.278Z,65535.00
2018-08-17T09:45:29.973Z,51432.00
2018-08-17T09:46:30.362Z,48192.00
2018-08-17T09:47:29.826Z,45232.00
2018-08-17T09:48:29.737Z,44560.00
2018-08-17T09:49:30.093Z,43928.00
2018-08-17T09:50:30.130Z,45472.00
2018-08-17T09:51:52.960Z,61848.00
2018-08-17T09:52:53.121Z,49888.00
2018-08-17T09:53:52.855Z,47320.00
2018-08-17T09:54:53.135Z,57896.00
2018-08-17T09:55:53.319Z,48552.00
2018-08-17T09:56:52.292Z,54968.00
2018-08-17T09:57:52.432Z,60472.00
2018-08-17T09:58:52.542Z,57016.00
2018-08-17T09:59:52.735Z,53944.00
2018-08-17T10:00:52.838Z,48584.00
2018-08-17T10:01:52.585Z,41728.00
2018-08-17T10:02:52.453Z,40120.00
2018-08-17T10:03:52.225Z,40616.00
2018-08-17T10:04:53.114Z,40248.00
2018-08-17T10:05:52.270Z,34584.00
2018-08-17T10:06:52.712Z,29112.00
2018-08-17T10:07:53.904Z,26264.00
2018-08-17T10:08:53.395Z,26304.00
2018-08-17T10:09:52.551Z,25160.00
2018-08-17T10:10:53.153Z,21744.00
2018-08-17T10:11:52.447Z,22672.00
2018-08-17T10:12:59.043Z,28560.00
2018-08-17T10:13:53.434Z,36264.00
2018-08-17T10:14:52.091Z,40136.00
2018-08-17T10:15:53.175Z,40608.00
2018-08-17T10:16:53.289Z,41400.00
2018-08-17T10:17:52.285Z,42304.00
2018-08-17T10:18:52.229Z,38744.00
2018-08-17T10:20:17.847Z,36712.00
2018-08-17T10:21:17.962Z,38984.00
2018-08-17T10:22:18.318Z,39192.00
2018-08-17T10:23:18.210Z,38760.00
2018-08-17T10:24:40.038Z,36016.00
2018-08-17T10:25:40.064Z,33640.00
2018-08-17T10:26:39.966Z,31952.00
2018-08-17T10:28:01.550Z,36928.00
2018-08-17T10:29:48.409Z,43704.00
2018-08-17T10:30:49.319Z,46144.00
2018-08-17T10:31:49.142Z,48984.00
2018-08-17T10:32:49.443Z,58224.00
2018-08-17T10:33:49.241Z,47184.00
2018-08-17T10:34:51.745Z,43448.00
2018-08-17T10:35:51.602Z,40256.00
2018-08-17T10:36:49.172Z,39000.00
2018-08-17T10:37:49.021Z,42040.00
2018-08-17T10:38:49.385Z,41752.00
2018-08-17T10:39:49.553Z,38280.00
2018-08-17T10:40:50.176Z,39432.00
2018-08-17T10:41:56.386Z,40024.00
2018-08-17T10:42:49.699Z,41704.00
2018-08-17T10:43:49.901Z,42752.00
2018-08-17T10:44:49.137Z,47072.00
2018-08-17T10:45:49.118Z,47712.00
2018-08-17T10:46:49.901Z,43120.00
2018-08-17T10:47:51.242Z,40456.00
2018-08-17T10:49:10.481Z,37264.00
2018-08-17T10:49:49.090Z,32552.00
2018-08-17T10:50:49.015Z,31680.00
2018-08-17T10:52:32.894Z,30592.00
2018-08-17T10:53:54.850Z,28168.00
2018-08-17T10:55:18.960Z,25976.00
2018-08-17T10:56:19.764Z,23712.00
2018-08-17T10:57:19.782Z,21928.00
2018-08-17T10:58:19.654Z,20936.00
2018-08-17T10:59:19.852Z,20408.00
2018-08-17T11:00:19.789Z,19832.00
2018-08-17T11:01:19.729Z,18864.00
2018-08-17T11:02:19.788Z,17432.00
2018-08-17T11:03:19.539Z,15689.00
2018-08-17T11:04:19.857Z,14578.00
2018-08-17T11:05:19.873Z,15562.00
2018-08-17T11:06:19.669Z,18296.00
2018-08-17T11:07:19.926Z,21728.00
2018-08-17T11:08:19.978Z,26176.00
2018-08-17T11:09:20.695Z,27040.00
2018-08-17T11:10:19.618Z,25408.00
2018-08-17T11:11:19.869Z,22560.00
2018-08-17T11:12:41.388Z,16992.00
2018-08-17T11:14:04.594Z,13153.00
2018-08-17T11:15:05.647Z,12073.00
2018-08-17T11:16:06.126Z,12041.00
2018-08-17T11:17:05.279Z,11049.00
2018-08-17T11:18:06.053Z,9613.00
2018-08-17T11:19:04.549Z,8588.00
2018-08-17T11:20:05.401Z,7358.00
2018-08-17T11:21:05.629Z,6185.00
2018-08-17T11:22:05.742Z,5170.00
2018-08-17T11:23:04.818Z,4619.00
2018-08-17T11:24:04.642Z,4599.00
2018-08-17T11:25:04.474Z,4718.00
2018-08-17T11:26:05.169Z,4942.00
2018-08-17T11:27:04.965Z,5168.00
2018-08-17T11:28:05.046Z,5350.00
2018-08-17T11:29:26.221Z,5852.00
2018-08-17T11:30:27.148Z,6284.00
2018-08-17T11:31:27.832Z,6479.00
2018-08-17T11:32:26.873Z,7014.00
2018-08-17T11:33:26.680Z,7364.00
2018-08-17T11:34:26.511Z,7257.00
2018-08-17T11:35:26.283Z,7992.00
2018-08-17T11:36:27.382Z,9863.00
2018-08-17T11:37:27.255Z,13524.00
2018-08-17T11:38:27.703Z,18752.00
2018-08-17T11:39:26.559Z,24416.00
2018-08-17T11:40:26.393Z,31032.00
2018-08-17T11:41:27.449Z,40520.00
2018-08-17T11:42:27.249Z,44920.00
2018-08-17T11:43:47.976Z,49416.00
2018-08-17T11:44:48.774Z,57632.00
2018-08-17T11:46:32.132Z,54304.00
2018-08-17T11:47:31.971Z,50088.00
2018-08-17T11:48:32.924Z,51672.00
2018-08-17T11:49:32.800Z,51840.00
2018-08-17T11:50:32.689Z,51192.00
2018-08-17T11:51:35.480Z,51688.00
2018-08-17T11:52:33.173Z,46888.00
2018-08-17T11:54:16.187Z,37336.00
2018-08-17T11:55:16.318Z,34224.00
2018-08-17T11:56:16.709Z,32072.00
2018-08-17T11:57:16.956Z,32992.00
2018-08-17T11:58:16.141Z,33168.00
2018-08-17T11:59:16.784Z,28136.00
2018-08-17T12:00:17.120Z,23568.00
2018-08-17T12:01:16.070Z,23928.00
2018-08-17T12:02:16.221Z,25968.00
2018-08-17T12:03:16.161Z,27032.00
2018-08-17T12:04:38.046Z,28456.00
2018-08-17T12:05:38.792Z,30856.00
2018-08-17T12:06:38.893Z,34432.00
2018-08-17T12:07:39.699Z,37064.00
2018-08-17T12:08:38.569Z,37136.00
2018-08-17T12:10:00.301Z,34000.00
2018-08-17T12:11:01.937Z,35880.00
2018-08-17T12:12:23.637Z,44720.00
2018-08-17T12:13:45.555Z,49712.00
2018-08-17T12:14:45.830Z,50256.00
2018-08-17T12:15:45.936Z,45016.00
2018-08-17T12:16:46.322Z,46584.00
2018-08-17T12:17:46.073Z,41360.00
2018-08-17T12:18:46.620Z,40888.00
2018-08-17T12:19:45.997Z,39584.00
2018-08-17T12:20:47.598Z,35256.00
2018-08-17T12:21:45.401Z,38016.00
2018-08-17T12:22:47.779Z,37688.00
2018-08-17T12:23:47.150Z,42296.00
2018-08-17T12:24:49.462Z,45536.00
2018-08-17T12:25:45.865Z,46696.00
2018-08-17T12:26:46.975Z,48440.00
2018-08-17T12:27:46.125Z,49808.00
2018-08-17T12:28:48.554Z,50648.00
2018-08-17T12:29:46.396Z,48520.00
2018-08-17T12:30:46.755Z,45496.00
2018-08-17T12:32:07.935Z,44176.00
2018-08-17T12:33:08.001Z,41040.00
2018-08-17T12:34:09.043Z,40544.00
2018-08-17T12:35:07.983Z,41944.00
2018-08-17T12:36:08.470Z,45224.00
2018-08-17T12:37:07.556Z,45464.00
2018-08-17T12:38:07.576Z,43264.00
2018-08-17T12:39:07.462Z,43640.00
2018-08-17T12:40:07.702Z,40576.00
2018-08-17T12:41:09.076Z,40064.00
2018-08-17T12:42:08.203Z,41736.00
2018-08-17T12:43:07.925Z,41456.00
2018-08-17T12:44:08.217Z,35376.00
2018-08-17T12:45:08.861Z,27928.00
2018-08-17T12:46:07.746Z,22192.00
2018-08-17T12:47:09.186Z,19512.00
2018-08-17T12:48:08.966Z,18840.00
2018-08-17T12:49:07.680Z,18856.00
2018-08-17T12:50:08.024Z,19120.00
2018-08-17T12:51:08.297Z,18912.00
2018-08-17T12:52:07.606Z,18680.00
2018-08-17T12:53:07.597Z,17336.00
2018-08-17T12:54:07.959Z,15884.00
2018-08-17T12:55:09.150Z,14970.00
2018-08-17T12:56:08.409Z,13499.00
2018-08-17T12:57:07.879Z,12503.00
2018-08-17T12:58:31.956Z,11566.00
2018-08-17T12:59:30.310Z,12131.00
2018-08-17T13:00:51.985Z,13682.00
2018-08-17T13:01:52.067Z,15344.00
2018-08-17T13:02:52.277Z,17232.00
2018-08-17T13:03:54.006Z,17936.00